Search for airport 
image banner adimage banner adimage banner ad
image banner ad

KVVS - Joseph A Hardy Connellsville

Located in Connellsville, United States

ICAO - VVS, IATA -

Data provided by Airmate  

General information

Coordinates: N39°57'33" W79°39'27"
Elevation is 1264 feet MSL.
Magnetic variation is -08° East
View others Airports in Pennsylvania

Operational data

Special qualification required
Current time UTC:
Current local time:
Weather at : KLBE - Arnold Palmer Rgnl ( 41 km )
METAR: KLBE 091647Z 05006KT 10SM -DZ FEW033 OVC055 06/05 A2991
TAF: KLBE 091603Z 0916/1012 07008KT P6SM -SHRA SCT030 OVC040 TEMPO 0917/0919 5SM -SHRA BR BKN015 FM091900 09006KT 3SM SHRA OVC010 FM100200 01004KT 5SM -SHRA BR OVC005 FM100700 32004KT P6SM BKN010
View NOTAMs / SUP AIP / TFR affecting this airport [VIEW]
Communications frequencies: [VIEW]

Runways:

RWY identifierQFULength (ft)Width (ft)SurfaceLDA (ft)
0541°3833100ASPH
23221°3833100ASPH
14131°2404100ASPH
32311°2404100ASPH

Airport contact information

Address: Connellsville United States

Satellite view of KVVS